createdAt,value
2019-04-22T00:01:32.388Z,99995.00
2019-04-22T00:04:06.986Z,99981.27
2019-04-22T00:06:51.821Z,99991.95
2019-04-22T00:09:25.195Z,99991.58
2019-04-22T00:12:01.817Z,99986.23
2019-04-22T00:14:26.724Z,99985.11
2019-04-22T00:16:58.528Z,99981.52
2019-04-22T00:19:28.948Z,99974.33
2019-04-22T00:22:03.137Z,99978.88
2019-04-22T00:24:24.297Z,99976.06
2019-04-22T00:26:59.998Z,99980.15
2019-04-22T00:29:49.825Z,99978.25
2019-04-22T00:32:05.246Z,99980.94
2019-04-22T00:34:48.840Z,99977.58
2019-04-22T00:37:17.219Z,99972.83
2019-04-22T00:39:46.455Z,99969.63
2019-04-22T00:42:21.402Z,99973.31
2019-04-22T00:44:51.763Z,99968.30
2019-04-22T00:47:23.447Z,99966.34
2019-04-22T00:52:15.448Z,99962.28
2019-04-22T00:54:55.702Z,99960.67
2019-04-22T00:57:21.444Z,99966.56
2019-04-22T00:59:54.826Z,99964.93
2019-04-22T01:02:23.646Z,99958.44
2019-04-22T01:04:57.550Z,99958.20
2019-04-22T01:07:18.857Z,99954.18
2019-04-22T01:09:52.075Z,99947.86
2019-04-22T01:12:28.485Z,99957.99
2019-04-22T01:14:57.227Z,99950.19
2019-04-22T01:17:24.289Z,99947.31
2019-04-22T01:19:56.310Z,99945.93
2019-04-22T01:22:22.385Z,99947.76
2019-04-22T01:24:50.312Z,99946.22
2019-04-22T01:27:16.215Z,99943.20
2019-04-22T01:29:46.903Z,99944.70
2019-04-22T01:32:05.889Z,99940.93
2019-04-22T01:34:46.075Z,99935.47
2019-04-22T01:37:20.322Z,99932.66
2019-04-22T01:39:58.334Z,99931.67
2019-04-22T01:42:36.967Z,99929.77
2019-04-22T01:44:59.601Z,99936.80
2019-04-22T01:47:32.783Z,99935.69
2019-04-22T01:49:59.867Z,99931.38
2019-04-22T01:52:29.699Z,99928.65
2019-04-22T01:55:06.659Z,99922.70
2019-04-22T01:57:28.766Z,99927.12
2019-04-22T01:59:59.059Z,99929.93
2019-04-22T02:02:36.482Z,99927.48
2019-04-22T02:05:05.712Z,99927.73
2019-04-22T02:07:34.029Z,99925.61
2019-04-22T02:10:04.025Z,99922.88
2019-04-22T02:12:33.667Z,99918.92
2019-04-22T02:15:07.898Z,99918.95
2019-04-22T02:17:36.926Z,99920.77
2019-04-22T02:20:07.213Z,99918.58
2019-04-22T02:22:52.251Z,99911.47
2019-04-22T02:25:09.348Z,99910.86
2019-04-22T02:27:39.016Z,99911.15
2019-04-22T02:30:05.418Z,99910.95
2019-04-22T02:32:49.391Z,99906.94
2019-04-22T02:35:11.173Z,99907.06
2019-04-22T02:37:54.524Z,99904.30
2019-04-22T02:40:09.578Z,99901.02
2019-04-22T02:42:34.933Z,99895.13
2019-04-22T02:45:07.177Z,99900.34
2019-04-22T02:47:59.325Z,99897.66
2019-04-22T02:53:00.881Z,99885.80
2019-04-22T02:57:39.723Z,99885.00
2019-04-22T03:00:29.422Z,99887.28
2019-04-22T03:02:52.725Z,99885.53
2019-04-22T03:05:21.618Z,99874.61
2019-04-22T03:07:55.834Z,99875.21
2019-04-22T03:10:38.488Z,99872.06
2019-04-22T03:12:41.721Z,99871.34
2019-04-22T03:15:34.989Z,99862.23
2019-04-22T03:17:51.745Z,99857.63
2019-04-22T03:20:11.139Z,99854.08
2019-04-22T03:22:59.592Z,99850.72
2019-04-22T03:27:38.784Z,99845.17
2019-04-22T03:40:30.383Z,99837.19
2019-04-22T03:42:55.954Z,99832.55
2019-04-22T03:48:04.720Z,99823.57
2019-04-22T03:50:25.931Z,99823.19
2019-04-22T03:55:22.998Z,99816.45
2019-04-22T04:00:41.650Z,99817.07
2019-04-22T04:05:33.164Z,99819.05
2019-04-22T04:07:57.716Z,99815.83
2019-04-22T04:13:01.857Z,99811.13
2019-04-22T04:15:24.841Z,99808.80
2019-04-22T04:17:53.858Z,99811.16
2019-04-22T04:22:58.965Z,99797.83
2019-04-22T04:30:29.477Z,99803.42
2019-04-22T04:35:30.494Z,99803.34
2019-04-22T04:40:28.835Z,99796.32
2019-04-22T04:42:54.142Z,99796.95
2019-04-22T04:47:54.526Z,99784.23
2019-04-22T04:50:27.335Z,99793.09
2019-04-22T04:53:06.341Z,99796.81
2019-04-22T04:55:34.881Z,99788.20
2019-04-22T05:05:29.317Z,99795.87
2019-04-22T05:07:55.356Z,99793.66
2019-04-22T05:15:47.152Z,99791.48
2019-04-22T05:17:57.795Z,99793.92
2019-04-22T05:20:34.177Z,99794.42
2019-04-22T05:22:51.077Z,99789.33
2019-04-22T05:25:22.238Z,99792.48
2019-04-22T05:27:50.889Z,99787.48
2019-04-22T05:30:30.663Z,99789.23
2019-04-22T05:32:58.010Z,99786.55
2019-04-22T05:35:28.151Z,99790.65
2019-04-22T05:37:57.737Z,99789.97
2019-04-22T05:40:24.780Z,99787.48
2019-04-22T05:42:56.572Z,99790.74
2019-04-22T05:47:59.261Z,99794.44
2019-04-22T05:50:24.735Z,99791.14
2019-04-22T05:52:57.076Z,99789.00
2019-04-22T05:55:33.211Z,99781.28
2019-04-22T05:57:59.705Z,99779.03
2019-04-22T06:03:07.197Z,99779.86
2019-04-22T06:05:33.140Z,99779.86
2019-04-22T06:08:02.136Z,99774.41
2019-04-22T06:10:39.241Z,99782.45
2019-04-22T06:13:00.897Z,99778.63
2019-04-22T06:15:36.358Z,99775.94
2019-04-22T06:18:16.133Z,99776.31
2019-04-22T06:20:49.838Z,99773.64
2019-04-22T06:23:19.283Z,99780.00
2019-04-22T06:28:22.194Z,99766.59
2019-04-22T06:30:54.669Z,99769.52
2019-04-22T06:35:54.629Z,99764.62
2019-04-22T06:43:20.121Z,99760.48
2019-04-22T06:45:43.851Z,99756.69
2019-04-22T06:48:23.631Z,99760.61
2019-04-22T06:50:48.891Z,99760.90
2019-04-22T06:53:16.832Z,99755.52
2019-04-22T06:55:51.659Z,99753.08
2019-04-22T06:58:34.946Z,99747.87
2019-04-22T07:00:46.228Z,99749.40
2019-04-22T07:03:39.889Z,99755.40
2019-04-22T07:05:51.510Z,99748.09
2019-04-22T07:10:50.814Z,99743.34
2019-04-22T07:13:23.563Z,99735.09
2019-04-22T07:16:08.902Z,99736.38
2019-04-22T07:18:25.066Z,99729.40
2019-04-22T07:20:57.825Z,99732.11
2019-04-22T07:25:52.107Z,99726.17
2019-04-22T07:28:20.221Z,99730.41
2019-04-22T07:30:54.617Z,99727.34
2019-04-22T07:36:12.607Z,99724.57
2019-04-22T07:45:54.438Z,99712.81
2019-04-22T07:48:35.762Z,99708.41
2019-04-22T07:53:23.047Z,99700.76
2019-04-22T07:56:00.187Z,99706.05
2019-04-22T08:01:04.125Z,99705.73
2019-04-22T08:03:54.150Z,99704.11
2019-04-22T08:06:06.552Z,99703.73
2019-04-22T08:11:30.923Z,99701.14
2019-04-22T08:13:32.648Z,99695.61
2019-04-22T08:23:37.946Z,99685.08
2019-04-22T08:26:01.121Z,99680.58
2019-04-22T08:28:40.758Z,99677.82
2019-04-22T08:33:35.032Z,99671.80
2019-04-22T08:36:10.853Z,99669.92
2019-04-22T08:38:39.373Z,99667.05
2019-04-22T08:41:23.050Z,99667.03
2019-04-22T08:43:52.352Z,99664.22
2019-04-22T08:46:25.312Z,99668.11
2019-04-22T08:48:51.676Z,99659.53
2019-04-22T08:51:22.267Z,99662.50
2019-04-22T08:53:55.990Z,99655.98
2019-04-22T08:56:29.600Z,99660.17
2019-04-22T08:58:50.705Z,99645.95
2019-04-22T09:03:52.690Z,99635.61
2019-04-22T09:06:29.976Z,99628.61
2019-04-22T09:08:55.320Z,99631.62
2019-04-22T09:11:20.221Z,99626.31
2019-04-22T09:16:27.975Z,99613.91
2019-04-22T09:21:27.653Z,99615.08
2019-04-22T09:23:55.667Z,99607.14
2019-04-22T09:26:27.117Z,99607.41
2019-04-22T09:31:19.046Z,99596.60
2019-04-22T09:33:50.172Z,99589.48
2019-04-22T09:38:46.818Z,99577.00
2019-04-22T09:41:27.199Z,99579.80
2019-04-22T09:46:32.871Z,99574.91
2019-04-22T09:49:01.683Z,99558.58
2019-04-22T09:51:29.127Z,99555.58
2019-04-22T09:54:04.161Z,99551.73
2019-04-22T09:56:23.804Z,99546.42
2019-04-22T09:58:58.987Z,99538.55
2019-04-22T10:04:03.720Z,99539.77
2019-04-22T10:09:13.050Z,99520.11
2019-04-22T10:16:35.479Z,99514.23
2019-04-22T10:19:01.051Z,99500.77
2019-04-22T10:21:37.179Z,99498.19
2019-04-22T10:23:59.857Z,99483.64
2019-04-22T10:26:34.900Z,99500.25
2019-04-22T10:29:00.872Z,99489.30
2019-04-22T10:31:44.787Z,99484.97
2019-04-22T10:33:49.517Z,99476.80
2019-04-22T10:36:05.897Z,99474.70
2019-04-22T10:38:34.727Z,99471.96
2019-04-22T10:41:04.769Z,99463.16
2019-04-22T10:43:34.840Z,99465.72
2019-04-22T10:46:04.168Z,99465.69
2019-04-22T10:48:34.372Z,99455.57
2019-04-22T10:51:04.459Z,99456.14
2019-04-22T10:53:33.493Z,99454.89
2019-04-22T10:56:03.235Z,99445.13
2019-04-22T10:58:32.967Z,99456.12
2019-04-22T11:01:01.623Z,99446.55
2019-04-22T11:03:31.123Z,99440.77
2019-04-22T11:06:01.248Z,99436.73
2019-04-22T11:08:38.595Z,99435.17
2019-04-22T11:11:16.239Z,99432.00
2019-04-22T11:13:31.766Z,99423.89
2019-04-22T11:16:00.623Z,99411.77
2019-04-22T11:18:29.614Z,99414.27
2019-04-22T11:20:59.746Z,99403.80
2019-04-22T11:23:28.842Z,99412.94
2019-04-22T11:25:59.562Z,99401.40
2019-04-22T11:28:29.541Z,99398.09
2019-04-22T11:30:58.697Z,99389.46
2019-04-22T11:33:27.523Z,99380.20
2019-04-22T11:35:56.012Z,99396.83
2019-04-22T11:38:24.731Z,99378.74
2019-04-22T11:40:55.484Z,99377.22
2019-04-22T11:43:24.192Z,99369.48
2019-04-22T11:45:53.368Z,99370.97
2019-04-22T11:48:23.527Z,99359.46
2019-04-22T11:50:52.063Z,99365.28
2019-04-22T11:53:20.709Z,99363.92
2019-04-22T11:55:50.735Z,99350.55
2019-04-22T11:58:19.453Z,99342.02
2019-04-22T12:00:49.478Z,99343.06
2019-04-22T12:03:20.869Z,99344.38
2019-04-22T12:05:49.954Z,99334.12
2019-04-22T12:08:18.618Z,99332.36
2019-04-22T12:10:54.232Z,99333.27
2019-04-22T12:13:17.855Z,99326.48
2019-04-22T12:15:46.882Z,99341.64
2019-04-22T12:18:17.209Z,99325.16
2019-04-22T12:20:47.182Z,99324.97
2019-04-22T12:23:17.008Z,99324.97
2019-04-22T12:25:52.501Z,99330.16
2019-04-22T12:28:17.200Z,99314.28
2019-04-22T12:30:45.883Z,99305.47
2019-04-22T12:33:14.954Z,99316.11
2019-04-22T12:35:44.402Z,99293.66
2019-04-22T12:38:15.221Z,99307.06
2019-04-22T12:40:51.867Z,99298.12
2019-04-22T12:43:16.129Z,99291.43
2019-04-22T12:45:44.743Z,99286.00
2019-04-22T12:48:14.849Z,99282.59
2019-04-22T12:50:45.918Z,99285.17
2019-04-22T12:53:17.767Z,99284.05
2019-04-22T12:55:44.290Z,99275.48
2019-04-22T12:58:13.883Z,99278.01
2019-04-22T13:00:42.829Z,99270.52
2019-04-22T13:03:11.469Z,99256.95
2019-04-22T13:05:40.984Z,99258.16
2019-04-22T13:08:09.745Z,99255.08
2019-04-22T13:10:45.605Z,99252.50
2019-04-22T13:13:09.178Z,99258.70
2019-04-22T13:15:39.115Z,99232.87
2019-04-22T13:18:17.544Z,99238.59
2019-04-22T13:20:38.683Z,99236.08
2019-04-22T13:23:07.765Z,99230.95
2019-04-22T13:25:36.731Z,99224.63
2019-04-22T13:28:05.294Z,99223.45
2019-04-22T13:30:34.674Z,99216.41
2019-04-22T13:33:03.302Z,99213.92
2019-04-22T13:35:31.980Z,99208.70
2019-04-22T13:38:01.496Z,99202.74
2019-04-22T13:40:30.791Z,99200.02
2019-04-22T13:43:00.750Z,99204.17
2019-04-22T13:45:29.824Z,99193.17
2019-04-22T13:48:18.358Z,99201.30
2019-04-22T13:51:00.962Z,99193.08
2019-04-22T13:58:14.609Z,99170.73
2019-04-22T14:00:32.038Z,99171.59
2019-04-22T14:03:12.749Z,99166.75
2019-04-22T14:05:42.984Z,99166.66
2019-04-22T14:08:12.666Z,99158.78
2019-04-22T14:10:42.808Z,99148.84
2019-04-22T14:13:12.034Z,99155.38
2019-04-22T14:15:42.256Z,99145.66
2019-04-22T14:18:12.711Z,99145.02
2019-04-22T14:20:42.819Z,99136.92
2019-04-22T14:23:12.271Z,99125.81
2019-04-22T14:25:43.024Z,99122.91
2019-04-22T14:28:16.949Z,99128.19
2019-04-22T14:30:42.509Z,99111.05
2019-04-22T14:33:12.150Z,99121.58
2019-04-22T14:35:41.607Z,99117.84
2019-04-22T14:38:10.309Z,99109.18
2019-04-22T14:40:40.960Z,99106.09
2019-04-22T14:43:32.761Z,99099.56
2019-04-22T14:46:12.249Z,99096.05
2019-04-22T14:48:35.674Z,99083.94
2019-04-22T14:51:00.893Z,99090.79
2019-04-22T14:53:32.153Z,99085.52
2019-04-22T14:55:42.250Z,99075.72
2019-04-22T14:58:11.068Z,99074.97
2019-04-22T15:00:40.015Z,99079.45
2019-04-22T15:03:09.933Z,99074.16
2019-04-22T15:05:40.026Z,99062.22
2019-04-22T15:08:09.040Z,99070.71
2019-04-22T15:10:38.154Z,99066.77
2019-04-22T15:13:07.363Z,99068.74
2019-04-22T15:15:43.601Z,99062.79
2019-04-22T15:18:17.543Z,99065.86
2019-04-22T15:20:54.276Z,99060.99
2019-04-22T15:23:24.650Z,99049.31
2019-04-22T15:25:54.657Z,99050.63
2019-04-22T15:28:23.763Z,99046.16
2019-04-22T15:30:53.251Z,99043.00
2019-04-22T15:33:21.794Z,99037.74
2019-04-22T15:35:51.530Z,99041.30
2019-04-22T15:38:22.798Z,99026.37
2019-04-22T15:40:50.463Z,99026.56
2019-04-22T15:43:20.408Z,99030.54
2019-04-22T15:45:50.786Z,99028.35
2019-04-22T15:48:21.073Z,99029.33
2019-04-22T15:50:50.751Z,99027.19
2019-04-22T15:53:20.067Z,99018.86
2019-04-22T15:55:48.742Z,99018.16
2019-04-22T15:58:17.590Z,99018.09
2019-04-22T16:00:57.635Z,99013.52
2019-04-22T16:03:16.532Z,99013.50
2019-04-22T16:05:46.100Z,99010.36
2019-04-22T16:08:15.045Z,99009.85
2019-04-22T16:10:43.965Z,99003.89
2019-04-22T16:13:19.188Z,99004.13
2019-04-22T16:15:42.942Z,99002.48
2019-04-22T16:18:14.628Z,99000.22
2019-04-22T16:20:41.743Z,99001.55
2019-04-22T16:23:13.117Z,98995.87
2019-04-22T16:25:53.642Z,98995.59
2019-04-22T16:28:22.165Z,98991.38
2019-04-22T16:30:51.133Z,98990.92
2019-04-22T16:33:21.490Z,98988.44
2019-04-22T16:35:50.857Z,98983.69
2019-04-22T16:38:19.461Z,98980.67
2019-04-22T16:40:48.644Z,98982.96
2019-04-22T16:43:17.358Z,98978.79
2019-04-22T16:45:45.879Z,98974.03
2019-04-22T16:48:15.709Z,98970.97
2019-04-22T16:50:46.602Z,98971.63
2019-04-22T16:53:16.750Z,98965.37
2019-04-22T16:55:46.643Z,98964.52
2019-04-22T16:58:16.624Z,98964.41
2019-04-22T17:00:46.944Z,98964.44
2019-04-22T17:03:30.747Z,98952.99
2019-04-22T17:06:19.451Z,98955.42
2019-04-22T17:08:48.696Z,98951.92
2019-04-22T17:11:17.929Z,98949.72
2019-04-22T17:13:48.000Z,98947.63
2019-04-22T17:16:18.049Z,98942.70
2019-04-22T17:18:47.213Z,98946.92
2019-04-22T17:21:17.397Z,98947.22
2019-04-22T17:23:47.546Z,98948.61
2019-04-22T17:26:16.691Z,98945.02
2019-04-22T17:28:45.869Z,98936.63
2019-04-22T17:31:14.506Z,98940.91
2019-04-22T17:33:44.564Z,98932.66
2019-04-22T17:36:14.050Z,98937.72
2019-04-22T17:38:53.170Z,98937.21
2019-04-22T17:41:24.369Z,98933.36
2019-04-22T17:44:24.969Z,98937.77
2019-04-22T17:46:33.652Z,98936.97
2019-04-22T17:49:23.783Z,98939.81
2019-04-22T17:52:15.645Z,98933.64
2019-04-22T17:54:40.734Z,98941.09
2019-04-22T17:57:05.191Z,98936.80
2019-04-22T17:59:38.180Z,98931.77
2019-04-22T18:02:02.119Z,98938.73
2019-04-22T18:04:18.167Z,98940.05
2019-04-22T18:07:12.959Z,98933.73
2019-04-22T18:09:53.139Z,98940.33
2019-04-22T18:12:11.849Z,98933.73
2019-04-22T18:17:12.859Z,98933.37
2019-04-22T18:19:35.169Z,98929.73
2019-04-22T18:22:02.497Z,98935.90
2019-04-22T18:24:28.059Z,98938.91
2019-04-22T18:27:20.210Z,98929.42
2019-04-22T18:29:41.773Z,98939.92
2019-04-22T18:32:00.755Z,98933.04
2019-04-22T18:34:34.271Z,98936.55
2019-04-22T18:37:06.958Z,98934.52
2019-04-22T18:39:42.416Z,98929.37
2019-04-22T18:42:05.791Z,98936.64
2019-04-22T18:44:39.842Z,98941.06
2019-04-22T18:47:10.722Z,98934.74
2019-04-22T18:49:37.611Z,98942.44
2019-04-22T18:52:29.504Z,98946.00
2019-04-22T18:55:14.627Z,98946.95
2019-04-22T18:57:59.117Z,98943.08
2019-04-22T19:00:18.524Z,98942.34
2019-04-22T19:02:54.207Z,98938.90
2019-04-22T19:05:34.717Z,98943.98
2019-04-22T19:08:18.384Z,98947.61
2019-04-22T19:10:51.839Z,98949.81
2019-04-22T19:13:49.039Z,98946.14
2019-04-22T19:15:48.861Z,98955.07
2019-04-22T19:18:24.432Z,98949.69
2019-04-22T19:20:52.058Z,98951.13
2019-04-22T19:23:17.955Z,98954.11
2019-04-22T19:25:43.788Z,98958.27
2019-04-22T19:28:28.071Z,98959.00
2019-04-22T19:30:48.204Z,98948.86
2019-04-22T19:33:19.010Z,98954.50
2019-04-22T19:35:44.326Z,98960.08
2019-04-22T19:38:10.902Z,98955.66
2019-04-22T19:41:00.622Z,98959.63
2019-04-22T19:43:22.586Z,98957.39
2019-04-22T19:45:50.631Z,98957.03
2019-04-22T19:48:31.067Z,98957.81
2019-04-22T19:50:58.987Z,98963.70
2019-04-22T19:53:22.709Z,98954.89
2019-04-22T19:55:49.733Z,98958.31
2019-04-22T19:58:22.561Z,98951.71
2019-04-22T20:01:09.146Z,98952.22
2019-04-22T20:03:50.995Z,98951.61
2019-04-22T20:06:31.558Z,98956.03
2019-04-22T20:08:59.410Z,98945.41
2019-04-22T20:11:30.760Z,98942.22
2019-04-22T20:14:02.447Z,98943.55
2019-04-22T20:16:27.272Z,98949.43
2019-04-22T20:19:06.910Z,98939.78
2019-04-22T20:21:28.317Z,98937.78
2019-04-22T20:23:51.738Z,98934.74
2019-04-22T20:26:24.780Z,98933.68
2019-04-22T20:28:59.116Z,98933.02
2019-04-22T20:31:33.966Z,98930.59
2019-04-22T20:34:04.194Z,98928.63
2019-04-22T20:36:51.879Z,98923.01
2019-04-22T20:38:58.823Z,98926.03
2019-04-22T20:41:26.274Z,98920.08
2019-04-22T20:44:04.719Z,98929.83
2019-04-22T20:46:31.253Z,98921.89
2019-04-22T20:49:09.218Z,98923.58
2019-04-22T20:51:43.893Z,98920.03
2019-04-22T20:54:07.422Z,98921.41
2019-04-22T20:56:30.086Z,98925.65
2019-04-22T20:59:02.036Z,98919.30
2019-04-22T21:01:36.883Z,98920.37
2019-04-22T21:03:51.804Z,98930.83
2019-04-22T21:06:37.034Z,98926.72
2019-04-22T21:09:04.715Z,98926.88
2019-04-22T21:11:34.039Z,98930.45
2019-04-22T21:14:01.705Z,98925.66
2019-04-22T21:16:41.384Z,98913.83
2019-04-22T21:19:19.972Z,98924.31
2019-04-22T21:21:37.725Z,98917.65
2019-04-22T21:23:59.723Z,98924.55
2019-04-22T21:26:34.896Z,98912.23
2019-04-22T21:29:09.859Z,98912.11
2019-04-22T21:31:41.362Z,98913.25
2019-04-22T21:34:05.127Z,98907.76
2019-04-22T21:36:42.241Z,98909.90
2019-04-22T21:39:06.848Z,98904.16
2019-04-22T21:41:36.851Z,98903.31
2019-04-22T21:44:12.808Z,98913.31
2019-04-22T21:46:44.322Z,98900.81
2019-04-22T21:49:12.802Z,98901.50
2019-04-22T21:51:43.252Z,98898.73
2019-04-22T21:54:15.431Z,98905.92
2019-04-22T21:57:13.390Z,98892.10
2019-04-22T21:59:22.315Z,98889.11
2019-04-22T22:01:55.490Z,98886.90
2019-04-22T22:04:17.365Z,98886.00
2019-04-22T22:06:40.424Z,98886.97
2019-04-22T22:09:22.532Z,98890.39
2019-04-22T22:11:51.096Z,98881.38
2019-04-22T22:14:16.731Z,98895.88
2019-04-22T22:16:43.559Z,98881.72
2019-04-22T22:19:20.196Z,98883.06
2019-04-22T22:24:23.131Z,98880.86
2019-04-22T22:26:54.203Z,98870.03
2019-04-22T22:29:31.821Z,98865.64
2019-04-22T22:31:52.924Z,98870.12
2019-04-22T22:34:24.527Z,98871.33
2019-04-22T22:36:48.372Z,98870.67
2019-04-22T22:39:16.432Z,98862.98
2019-04-22T22:41:31.993Z,98869.84
2019-04-22T22:44:10.742Z,98869.11
2019-04-22T22:46:40.166Z,98847.91
2019-04-22T22:49:22.984Z,98851.58
2019-04-22T22:52:00.101Z,98852.05
2019-04-22T22:54:23.966Z,98848.63
2019-04-22T22:57:00.387Z,98846.68
2019-04-22T22:59:27.655Z,98851.30
2019-04-22T23:01:52.644Z,98848.78
2019-04-22T23:04:29.601Z,98843.77
2019-04-22T23:06:56.598Z,98830.31
2019-04-22T23:09:29.073Z,98836.72
2019-04-22T23:12:06.481Z,98853.01
2019-04-22T23:14:28.105Z,98843.27
2019-04-22T23:16:45.578Z,98838.48
2019-04-22T23:19:08.910Z,98842.31
2019-04-22T23:21:41.657Z,98841.23
2019-04-22T23:24:27.444Z,98834.28
2019-04-22T23:27:01.504Z,98840.90
2019-04-22T23:29:27.000Z,98836.25
2019-04-22T23:32:04.472Z,98829.45
2019-04-22T23:34:38.936Z,98821.20
2019-04-22T23:37:19.170Z,98821.76
2019-04-22T23:40:13.973Z,98824.70
2019-04-22T23:42:23.564Z,98824.58
2019-04-22T23:44:56.352Z,98829.83
2019-04-22T23:47:21.068Z,98826.18
2019-04-22T23:49:56.637Z,98827.36
2019-04-22T23:52:28.496Z,98822.56
2019-04-22T23:55:10.172Z,98823.71
2019-04-22T23:57:45.413Z,98819.30
